Time;durP1;ratioP1;P1;durP2;ratioP2;P2;SDS_P1;SDS_P2;PMS_P1;PMS_P2;Temp;Humidity;BMP_temperature;BMP_pressure;BME280_temperature;BME280_humidity;BME280_pressure;Samples;Min_cycle;Max_cycle;Signal;HPM_P1;HPM_P2
2022/11/14 00:02:07;;;;;;;5.40;4.30;;;6.80;99.90;;;;;;5068593;28;20190;-80
2022/11/14 00:04:33;;;;;;;7.40;4.60;;;6.80;99.90;;;;;;5069003;28;20183;-81
2022/11/14 00:06:58;;;;;;;5.40;4.13;;;6.80;99.90;;;;;;5060455;28;20181;-80
2022/11/14 00:09:28;;;;;;;6.10;4.50;;;6.90;99.90;;;;;;5059668;28;20224;-80
2022/11/14 00:11:54;;;;;;;5.23;3.87;;;6.90;99.90;;;;;;5051682;28;20705;-81
2022/11/14 00:14:20;;;;;;;5.10;3.90;;;6.90;99.90;;;;;;5045976;28;20273;-80
2022/11/14 00:16:46;;;;;;;5.47;4.00;;;6.90;99.90;;;;;;5057396;28;20239;-81
2022/11/14 00:19:12;;;;;;;6.20;4.33;;;7.00;99.90;;;;;;5052212;28;20182;-80
2022/11/14 00:21:41;;;;;;;5.17;4.37;;;7.10;99.90;;;;;;5046110;28;20173;-80
2022/11/14 00:24:07;;;;;;;5.70;4.43;;;7.00;99.90;;;;;;5055385;28;20239;-79
2022/11/14 00:26:32;;;;;;;6.37;4.30;;;7.00;99.90;;;;;;5060875;28;20169;-80
2022/11/14 00:28:59;;;;;;;5.77;4.10;;;7.00;99.90;;;;;;5055436;28;20220;-81
2022/11/14 00:31:27;;;;;;;5.53;4.40;;;7.10;99.90;;;;;;5055940;28;20232;-81
2022/11/14 00:33:52;;;;;;;6.27;4.50;;;7.10;99.90;;;;;;5061905;28;20207;-79
2022/11/14 00:36:18;;;;;;;5.33;3.77;;;7.10;99.90;;;;;;5060740;28;20181;-79
2022/11/14 00:38:44;;;;;;;5.00;4.00;;;7.10;99.90;;;;;;5058576;28;20260;-80
2022/11/14 00:41:09;;;;;;;6.43;4.30;;;7.10;99.90;;;;;;5052972;28;20177;-80
2022/11/14 00:43:35;;;;;;;5.97;4.20;;;7.20;99.90;;;;;;5048453;28;20178;-80
2022/11/14 00:46:01;;;;;;;5.23;4.13;;;7.10;99.90;;;;;;5054429;28;20192;-80
2022/11/14 00:48:26;;;;;;;4.67;3.87;;;7.10;99.90;;;;;;5051961;28;20209;-81
2022/11/14 00:50:52;;;;;;;4.77;3.87;;;7.10;99.90;;;;;;5063052;28;20264;-80
2022/11/14 00:53:18;;;;;;;4.80;3.90;;;7.10;99.90;;;;;;5049922;28;20192;-81
2022/11/14 00:55:44;;;;;;;6.10;3.87;;;7.20;99.90;;;;;;5034960;28;20174;-81
2022/11/14 00:58:09;;;;;;;6.07;4.37;;;7.10;99.90;;;;;;5050603;28;20185;-81
2022/11/14 01:00:35;;;;;;;5.47;4.40;;;7.10;99.90;;;;;;5053955;28;20215;-80
2022/11/14 01:03:01;;;;;;;5.40;4.27;;;7.10;99.90;;;;;;5054644;28;20224;-81
2022/11/14 01:05:27;;;;;;;5.20;4.30;;;7.20;99.90;;;;;;5054143;28;20425;-81
2022/11/14 01:07:53;;;;;;;5.37;4.20;;;7.20;99.90;;;;;;5054375;28;20266;-81
2022/11/14 01:10:19;;;;;;;5.17;4.10;;;7.10;99.90;;;;;;5063610;28;20432;-80
2022/11/14 01:12:45;;;;;;;5.20;4.30;;;7.10;99.90;;;;;;5060154;28;20181;-81
2022/11/14 01:15:11;;;;;;;4.83;4.17;;;7.10;99.90;;;;;;5053253;28;20173;-81
2022/11/14 01:17:37;;;;;;;5.40;4.13;;;7.10;99.90;;;;;;5035366;28;20182;-80
2022/11/14 01:20:04;;;;;;;5.60;4.37;;;7.10;99.90;;;;;;5053261;28;20198;-80
2022/11/14 01:22:30;;;;;;;5.47;4.47;;;7.10;99.90;;;;;;5080518;28;20189;-79
2022/11/14 01:24:57;;;;;;;5.80;4.40;;;7.10;99.90;;;;;;5035917;28;20181;-80
2022/11/14 01:27:23;;;;;;;5.97;4.60;;;7.10;99.90;;;;;;5049025;28;20381;-80
2022/11/14 01:29:50;;;;;;;7.50;4.97;;;7.10;99.90;;;;;;5054888;28;20177;-80
2022/11/14 01:32:15;;;;;;;8.30;5.17;;;7.10;99.90;;;;;;5052016;28;20359;-80
2022/11/14 01:34:41;;;;;;;5.27;4.30;;;7.00;99.90;;;;;;5043364;28;20264;-81
2022/11/14 01:37:07;;;;;;;6.67;4.50;;;7.00;99.90;;;;;;5043996;28;20181;-81
2022/11/14 01:39:32;;;;;;;6.73;4.50;;;7.00;99.90;;;;;;5053832;28;20192;-81
2022/11/14 01:41:58;;;;;;;6.37;4.50;;;7.00;99.90;;;;;;5053989;28;20185;-79
2022/11/14 01:44:49;;;;;;;5.37;4.27;;;7.00;99.90;;;;;;5054139;28;20192;-80
2022/11/14 01:47:23;;;;;;;5.93;4.23;;;7.00;99.90;;;;;;5054623;28;20212;-80
2022/11/14 01:49:59;;;;;;;6.03;4.50;;;7.00;99.90;;;;;;5059589;28;20183;-80
2022/11/14 01:52:30;;;;;;;6.20;4.60;;;6.90;99.90;;;;;;5057133;28;20189;-80
2022/11/14 01:55:00;;;;;;;6.80;5.17;;;6.80;99.90;;;;;;5058337;28;20173;-80
2022/11/14 01:57:35;;;;;;;6.00;4.33;;;6.80;99.90;;;;;;5057922;28;20169;-80
2022/11/14 02:00:04;;;;;;;5.50;4.10;;;6.80;99.90;;;;;;5056122;28;20196;-80
2022/11/14 02:02:30;;;;;;;6.40;5.03;;;6.70;99.90;;;;;;5055200;28;20424;-79
2022/11/14 02:05:02;;;;;;;5.80;4.83;;;6.70;99.90;;;;;;5043792;28;20465;-80
2022/11/14 02:07:32;;;;;;;8.13;4.93;;;6.60;99.90;;;;;;5057574;28;20208;-80
2022/11/14 02:10:00;;;;;;;7.83;5.33;;;6.60;99.90;;;;;;5054427;28;20195;-81
2022/11/14 02:12:26;;;;;;;6.57;4.63;;;6.50;99.90;;;;;;5049754;28;20213;-81
2022/11/14 02:14:56;;;;;;;5.23;4.53;;;6.50;99.90;;;;;;5046476;28;20222;-80
2022/11/14 02:17:23;;;;;;;6.03;4.83;;;6.50;99.90;;;;;;5052834;28;20178;-79
2022/11/14 02:19:53;;;;;;;6.10;4.63;;;6.40;99.90;;;;;;5052418;28;20211;-80
2022/11/14 02:22:19;;;;;;;6.80;4.80;;;6.40;99.90;;;;;;5056564;28;20192;-80
2022/11/14 02:24:45;;;;;;;5.90;4.90;;;6.40;99.90;;;;;;5058333;28;20197;-80
2022/11/14 02:27:12;;;;;;;5.40;4.13;;;6.30;99.90;;;;;;5057350;28;20185;-80
2022/11/14 02:29:38;;;;;;;7.03;4.67;;;6.30;99.90;;;;;;5056977;28;20223;-79
2022/11/14 02:32:04;;;;;;;5.03;4.37;;;6.30;99.90;;;;;;5046610;28;20206;-80
2022/11/14 02:34:31;;;;;;;4.83;4.00;;;6.30;99.90;;;;;;5060053;28;20238;-79
2022/11/14 02:36:56;;;;;;;5.67;4.27;;;6.30;99.90;;;;;;5050413;28;20284;-80
2022/11/14 02:39:23;;;;;;;6.83;4.47;;;6.30;99.90;;;;;;5048332;28;20316;-80
2022/11/14 02:41:50;;;;;;;5.63;4.37;;;6.30;99.90;;;;;;5056993;28;20173;-80
2022/11/14 02:44:16;;;;;;;5.93;4.63;;;6.30;99.90;;;;;;5052845;28;20206;-80
2022/11/14 02:46:42;;;;;;;5.87;4.47;;;6.20;99.90;;;;;;5053025;28;20337;-80
2022/11/14 02:49:07;;;;;;;4.80;4.10;;;6.20;99.90;;;;;;5043886;28;20523;-80
2022/11/14 02:51:33;;;;;;;6.87;4.80;;;6.20;99.90;;;;;;5053795;28;20245;-80
2022/11/14 02:53:59;;;;;;;6.53;4.70;;;6.20;99.90;;;;;;5056170;28;20268;-80
2022/11/14 02:56:25;;;;;;;5.73;4.30;;;6.20;99.90;;;;;;5056995;28;20266;-80
2022/11/14 02:58:51;;;;;;;5.53;4.33;;;6.10;99.90;;;;;;5051383;28;20386;-79
2022/11/14 03:01:16;;;;;;;6.07;4.30;;;6.10;99.90;;;;;;5051295;28;20178;-80
2022/11/14 03:03:42;;;;;;;5.77;4.53;;;6.10;99.90;;;;;;5066730;28;20201;-79
2022/11/14 03:06:08;;;;;;;6.57;4.47;;;6.10;99.90;;;;;;5055877;28;20220;-80
2022/11/14 03:08:33;;;;;;;5.40;4.30;;;6.10;99.90;;;;;;5056002;28;20216;-80
2022/11/14 03:11:07;;;;;;;5.80;4.40;;;6.10;99.90;;;;;;5060275;28;20304;-79
2022/11/14 03:13:33;;;;;;;5.27;4.23;;;6.10;99.90;;;;;;5051350;28;20177;-80
2022/11/14 03:16:07;;;;;;;6.00;4.53;;;6.00;99.90;;;;;;5056885;28;20610;-80
2022/11/14 03:18:33;;;;;;;5.07;4.50;;;6.00;99.90;;;;;;5046222;28;20428;-80
2022/11/14 03:21:11;;;;;;;5.43;4.50;;;6.00;99.90;;;;;;5055333;28;20387;-79
2022/11/14 03:23:37;;;;;;;4.97;4.13;;;6.00;99.90;;;;;;5056648;28;20204;-79
2022/11/14 03:26:05;;;;;;;6.57;4.93;;;6.00;99.90;;;;;;5053906;28;20240;-79
2022/11/14 03:28:32;;;;;;;5.50;4.23;;;6.00;99.90;;;;;;5053402;28;20205;-79
2022/11/14 03:30:57;;;;;;;6.00;4.40;;;5.90;99.90;;;;;;5039254;28;20212;-79
2022/11/14 03:33:23;;;;;;;5.67;4.57;;;5.90;99.90;;;;;;5039667;28;20181;-79
2022/11/14 03:35:49;;;;;;;5.47;4.33;;;5.90;99.90;;;;;;5056544;28;20180;-79
2022/11/14 03:38:16;;;;;;;5.27;4.20;;;5.90;99.90;;;;;;5061222;28;20222;-80
2022/11/14 03:40:42;;;;;;;5.77;4.40;;;5.80;99.90;;;;;;5056270;28;20606;-79
2022/11/14 03:43:08;;;;;;;5.77;4.17;;;5.90;99.90;;;;;;5046622;28;20238;-79
2022/11/14 03:45:35;;;;;;;6.60;4.33;;;5.80;99.90;;;;;;5052086;28;20182;-79
2022/11/14 03:48:01;;;;;;;5.77;4.27;;;5.80;99.90;;;;;;5055645;28;20184;-79
2022/11/14 03:50:27;;;;;;;6.13;4.30;;;5.80;99.90;;;;;;5058895;28;20209;-79
2022/11/14 03:52:52;;;;;;;5.73;4.10;;;5.80;99.90;;;;;;5047943;28;20192;-79
2022/11/14 03:55:18;;;;;;;5.43;4.53;;;5.80;99.90;;;;;;5048121;28;20244;-79
2022/11/14 03:57:44;;;;;;;5.83;4.57;;;5.80;99.90;;;;;;5051815;28;20197;-80
2022/11/14 04:00:10;;;;;;;6.63;5.30;;;5.80;99.90;;;;;;5051761;28;20192;-79
2022/11/14 04:02:36;;;;;;;7.27;5.30;;;5.80;99.90;;;;;;5047193;28;20183;-80
2022/11/14 04:05:04;;;;;;;7.33;5.10;;;5.80;99.90;;;;;;5054544;28;20264;-80
2022/11/14 04:07:32;;;;;;;5.87;4.93;;;5.80;99.90;;;;;;5046962;28;20189;-80
2022/11/14 04:09:58;;;;;;;8.40;5.67;;;5.90;99.90;;;;;;5042992;28;20268;-80
2022/11/14 04:12:23;;;;;;;6.90;5.50;;;5.80;99.90;;;;;;5050765;28;20300;-80
2022/11/14 04:14:52;;;;;;;7.73;5.20;;;5.90;99.90;;;;;;5054940;28;20311;-80
2022/11/14 04:17:18;;;;;;;7.63;5.23;;;5.80;99.90;;;;;;5055357;28;20247;-80
2022/11/14 04:19:46;;;;;;;7.17;5.30;;;5.80;99.90;;;;;;5055859;28;20205;-79
2022/11/14 04:22:12;;;;;;;7.70;5.40;;;5.80;99.90;;;;;;5049099;28;20273;-80
2022/11/14 04:24:37;;;;;;;8.20;5.80;;;5.80;99.90;;;;;;5035889;28;20298;-78
2022/11/14 04:27:03;;;;;;;7.17;5.60;;;5.80;99.90;;;;;;5046073;28;20272;-80
2022/11/14 04:29:31;;;;;;;7.20;5.47;;;5.80;99.90;;;;;;5058823;28;20192;-80
2022/11/14 04:31:57;;;;;;;7.43;5.53;;;5.80;99.90;;;;;;5070915;28;20213;-79
2022/11/14 04:34:22;;;;;;;8.10;5.90;;;5.80;99.90;;;;;;5051767;28;20181;-79
2022/11/14 04:36:50;;;;;;;8.00;5.63;;;5.80;99.90;;;;;;5055294;28;20205;-80
2022/11/14 04:39:20;;;;;;;6.80;5.50;;;5.70;99.90;;;;;;5055646;28;20224;-78
2022/11/14 04:41:46;;;;;;;7.40;5.50;;;5.70;99.90;;;;;;5055460;28;20185;-79
2022/11/14 04:44:12;;;;;;;8.00;5.67;;;5.70;99.90;;;;;;5054336;28;20208;-79
2022/11/14 04:46:37;;;;;;;7.63;5.60;;;5.70;99.90;;;;;;5055777;28;20173;-79
2022/11/14 04:49:05;;;;;;;7.60;5.40;;;5.70;99.90;;;;;;5048298;28;20185;-79
2022/11/14 04:51:33;;;;;;;7.53;5.60;;;5.70;99.90;;;;;;5053247;28;20292;-79
2022/11/14 04:53:59;;;;;;;7.83;6.07;;;5.70;99.90;;;;;;5053891;28;20348;-80
2022/11/14 04:56:28;;;;;;;7.10;5.83;;;5.70;99.90;;;;;;5055093;28;20711;-80
2022/11/14 04:58:56;;;;;;;6.60;5.27;;;5.70;99.90;;;;;;5052589;28;20169;-79
2022/11/14 05:01:21;;;;;;;6.43;5.30;;;5.70;99.90;;;;;;5067822;28;20177;-80
2022/11/14 05:03:49;;;;;;;10.23;7.97;;;5.70;99.90;;;;;;5054819;28;20211;-80
2022/11/14 05:06:15;;;;;;;7.80;6.17;;;5.80;99.90;;;;;;5054880;28;20260;-81
2022/11/14 05:08:41;;;;;;;9.13;6.00;;;5.60;99.90;;;;;;5046345;28;20220;-79
2022/11/14 05:11:06;;;;;;;7.37;5.70;;;5.70;99.90;;;;;;5054842;28;20240;-80
2022/11/14 05:13:32;;;;;;;8.57;5.63;;;5.60;99.90;;;;;;5051249;28;20169;-80
2022/11/14 05:15:59;;;;;;;8.33;5.50;;;5.70;99.90;;;;;;5039497;28;20225;-80
2022/11/14 05:18:27;;;;;;;6.83;5.20;;;5.70;99.90;;;;;;5066288;28;20447;-80
2022/11/14 05:20:57;;;;;;;5.70;4.70;;;5.60;99.90;;;;;;5057810;28;20198;-80
2022/11/14 05:23:23;;;;;;;7.60;6.07;;;5.60;99.90;;;;;;5054921;28;20197;-78
2022/11/14 05:26:12;;;;;;;15.33;10.87;;;5.60;99.90;;;;;;5052985;28;20180;-80
2022/11/14 05:28:38;;;;;;;10.30;8.20;;;5.60;99.90;;;;;;5050541;28;20224;-80
2022/11/14 05:31:08;;;;;;;10.63;7.70;;;5.60;99.90;;;;;;5034931;28;20194;-80
2022/11/14 05:33:37;;;;;;;8.73;6.80;;;5.60;99.90;;;;;;5053149;28;20232;-80
2022/11/14 05:36:13;;;;;;;7.80;5.93;;;5.60;99.90;;;;;;5053083;28;20197;-80
2022/11/14 05:38:39;;;;;;;7.20;5.67;;;5.60;99.90;;;;;;5053961;28;20176;-80
2022/11/14 05:41:12;;;;;;;8.23;5.90;;;5.70;99.90;;;;;;5054153;28;20181;-80
2022/11/14 05:43:38;;;;;;;6.13;4.80;;;5.60;99.90;;;;;;5054529;28;20209;-80
2022/11/14 05:46:08;;;;;;;6.17;5.03;;;5.60;99.90;;;;;;5054484;28;20314;-80
2022/11/14 05:48:33;;;;;;;9.17;6.97;;;5.60;99.90;;;;;;5054118;28;20201;-79
2022/11/14 05:51:01;;;;;;;45.20;30.07;;;5.60;99.90;;;;;;5048610;28;20213;-80
2022/11/14 05:53:28;;;;;;;19.37;13.57;;;5.60;99.90;;;;;;5037447;28;20166;-80
2022/11/14 05:55:54;;;;;;;13.97;9.80;;;5.60;99.90;;;;;;5041847;28;20197;-80
2022/11/14 05:58:20;;;;;;;11.53;8.20;;;5.60;99.90;;;;;;5053362;28;20184;-81
2022/11/14 06:00:46;;;;;;;9.80;7.53;;;5.50;99.90;;;;;;5053002;28;20204;-81
2022/11/14 06:03:13;;;;;;;8.70;6.60;;;5.50;99.90;;;;;;5051720;28;20231;-79
2022/11/14 06:05:42;;;;;;;8.43;6.10;;;5.50;99.90;;;;;;5049126;28;20269;-79
2022/11/14 06:08:17;;;;;;;7.73;5.80;;;5.50;99.90;;;;;;5064389;28;20204;-81
2022/11/14 06:10:53;;;;;;;7.27;5.77;;;5.50;99.90;;;;;;5034851;28;20233;-80
2022/11/14 06:13:19;;;;;;;8.17;5.97;;;5.50;99.90;;;;;;5069168;28;20200;-80
2022/11/14 06:15:44;;;;;;;8.43;5.60;;;5.50;99.90;;;;;;5053795;28;20208;-80
2022/11/14 06:18:10;;;;;;;7.33;5.97;;;5.50;99.90;;;;;;5054131;28;20173;-79
2022/11/14 06:20:36;;;;;;;7.83;6.13;;;5.50;99.90;;;;;;5051963;28;20182;-80
2022/11/14 06:23:01;;;;;;;7.53;6.00;;;5.50;99.90;;;;;;5043146;28;20197;-79
2022/11/14 06:25:27;;;;;;;7.40;5.97;;;5.60;99.90;;;;;;5053538;28;20277;-79
2022/11/14 06:27:53;;;;;;;7.50;6.20;;;5.60;99.90;;;;;;5048293;28;20193;-79
2022/11/14 06:30:20;;;;;;;9.00;6.77;;;5.70;99.90;;;;;;5047915;28;20280;-79
2022/11/14 06:32:48;;;;;;;8.30;6.30;;;5.70;99.90;;;;;;5052122;28;20183;-80
2022/11/14 06:35:14;;;;;;;8.77;6.73;;;5.80;99.90;;;;;;5042320;28;20201;-80
2022/11/14 06:37:40;;;;;;;9.43;6.63;;;5.90;99.90;;;;;;5046402;28;20261;-79
2022/11/14 06:40:06;;;;;;;8.97;6.70;;;5.90;99.90;;;;;;5053369;28;20192;-79
2022/11/14 06:42:32;;;;;;;7.43;6.00;;;6.00;99.90;;;;;;5075193;28;20197;-80
2022/11/14 06:44:58;;;;;;;8.60;6.43;;;6.00;99.90;;;;;;5038353;28;20178;-79
2022/11/14 06:47:23;;;;;;;8.63;6.43;;;6.10;99.90;;;;;;5052580;28;20180;-79
2022/11/14 06:49:49;;;;;;;9.23;6.90;;;6.10;99.90;;;;;;5054906;28;20181;-80
2022/11/14 06:52:19;;;;;;;8.73;6.63;;;6.20;99.90;;;;;;5046016;28;20229;-80
2022/11/14 06:54:45;;;;;;;10.73;6.53;;;6.30;99.90;;;;;;5053410;28;20197;-80
2022/11/14 06:57:11;;;;;;;8.47;6.90;;;6.30;99.90;;;;;;5056662;28;20180;-79
2022/11/14 06:59:36;;;;;;;8.93;6.90;;;6.30;99.90;;;;;;5056716;28;20177;-79
2022/11/14 07:02:07;;;;;;;8.07;6.50;;;6.40;99.90;;;;;;5056875;28;20248;-80
2022/11/14 07:04:32;;;;;;;8.40;6.57;;;6.40;99.90;;;;;;5068553;28;20188;-80
2022/11/14 07:06:58;;;;;;;6.73;5.53;;;6.50;99.90;;;;;;5063637;28;20243;-80
2022/11/14 07:09:27;;;;;;;8.20;6.50;;;6.50;99.90;;;;;;5077079;28;20503;-80
2022/11/14 07:11:52;;;;;;;9.57;7.03;;;6.50;99.90;;;;;;5070561;28;20216;-80
2022/11/14 07:14:18;;;;;;;8.27;6.60;;;6.60;99.90;;;;;;5069678;28;20313;-79
2022/11/14 07:16:44;;;;;;;9.33;7.40;;;6.70;99.90;;;;;;5047418;28;20186;-80
2022/11/14 07:19:12;;;;;;;7.10;5.90;;;6.70;99.90;;;;;;5059344;28;20234;-80
2022/11/14 07:21:38;;;;;;;8.80;6.23;;;6.70;99.90;;;;;;5049315;28;20206;-80
2022/11/14 07:24:04;;;;;;;8.50;6.40;;;6.80;99.90;;;;;;5038325;28;20241;-80
2022/11/14 07:26:30;;;;;;;7.40;5.93;;;6.80;99.90;;;;;;5041606;28;20273;-80
2022/11/14 07:28:56;;;;;;;8.10;6.30;;;6.80;99.90;;;;;;5053741;28;20224;-80
2022/11/14 07:31:21;;;;;;;7.87;6.00;;;7.00;99.90;;;;;;5044878;28;20210;-81
2022/11/14 07:33:47;;;;;;;9.20;5.90;;;6.90;99.90;;;;;;5042687;28;20197;-79
2022/11/14 07:36:14;;;;;;;9.27;6.73;;;7.00;99.90;;;;;;5037743;28;20272;-81
2022/11/14 07:38:40;;;;;;;9.43;7.30;;;7.00;99.90;;;;;;5049053;28;20181;-81
2022/11/14 07:41:09;;;;;;;8.80;6.67;;;7.00;99.90;;;;;;5056299;28;20266;-80
2022/11/14 07:43:35;;;;;;;10.00;7.27;;;7.10;99.90;;;;;;5072511;28;20204;-80
2022/11/14 07:46:03;;;;;;;10.27;7.80;;;7.20;99.90;;;;;;5076005;28;20207;-81
2022/11/14 07:48:29;;;;;;;12.60;8.07;;;7.20;99.90;;;;;;5075567;28;20220;-81
2022/11/14 07:50:59;;;;;;;10.70;7.37;;;7.30;99.90;;;;;;5056504;28;20287;-80
2022/11/14 07:53:25;;;;;;;12.47;8.23;;;7.40;99.90;;;;;;5040956;28;20182;-81
2022/11/14 07:55:51;;;;;;;10.83;7.47;;;7.40;99.90;;;;;;5061782;28;20235;-80
2022/11/14 07:58:16;;;;;;;11.40;8.47;;;7.50;99.90;;;;;;5037723;28;20220;-80
2022/11/14 08:00:42;;;;;;;10.73;7.80;;;7.60;99.90;;;;;;5056174;28;20201;-80
2022/11/14 08:03:09;;;;;;;15.90;9.00;;;7.70;99.90;;;;;;5055708;28;20436;-76
2022/11/14 08:05:34;;;;;;;12.53;8.90;;;7.70;99.90;;;;;;5053658;28;20260;-80
2022/11/14 08:08:00;;;;;;;11.80;8.10;;;7.80;99.90;;;;;;5048051;28;20233;-81
2022/11/14 08:10:26;;;;;;;13.10;8.40;;;7.80;99.90;;;;;;5047481;28;20178;-81
2022/11/14 08:13:00;;;;;;;12.17;8.70;;;7.90;99.90;;;;;;5055481;28;20181;-80
2022/11/14 08:15:26;;;;;;;12.33;8.13;;;8.00;99.90;;;;;;5055676;28;20234;-80
2022/11/14 08:17:56;;;;;;;11.87;8.20;;;8.00;99.90;;;;;;5053506;28;20198;-80
2022/11/14 08:20:21;;;;;;;11.67;8.20;;;8.10;99.90;;;;;;5055705;28;20207;-80
2022/11/14 08:22:47;;;;;;;12.10;8.13;;;8.10;99.90;;;;;;5060846;28;20164;-80
2022/11/14 08:25:13;;;;;;;12.13;8.43;;;8.20;99.90;;;;;;5055470;28;20253;-80
2022/11/14 08:27:39;;;;;;;10.80;7.90;;;8.20;99.90;;;;;;5050658;28;20201;-79
2022/11/14 08:30:05;;;;;;;13.33;8.63;;;8.30;99.90;;;;;;5036905;28;20220;-80
2022/11/14 08:32:31;;;;;;;11.53;8.10;;;8.30;99.90;;;;;;5046324;28;20230;-81
2022/11/14 08:34:56;;;;;;;10.57;7.60;;;8.30;99.90;;;;;;5055274;28;20229;-81
2022/11/14 08:37:22;;;;;;;11.27;7.77;;;8.40;99.90;;;;;;5067697;28;20195;-81
2022/11/14 08:39:48;;;;;;;10.13;7.27;;;8.40;99.90;;;;;;5053776;28;20189;-81
2022/11/14 08:42:14;;;;;;;12.50;9.03;;;8.50;99.90;;;;;;5067702;28;20188;-81
2022/11/14 08:44:44;;;;;;;12.03;8.33;;;8.40;99.90;;;;;;5072868;28;20284;-81
2022/11/14 08:47:10;;;;;;;12.57;8.40;;;8.50;99.90;;;;;;5055140;28;20200;-82
2022/11/14 08:49:35;;;;;;;12.80;8.40;;;8.50;99.90;;;;;;5055110;28;20181;-82
2022/11/14 08:52:01;;;;;;;13.97;9.13;;;8.50;99.90;;;;;;5054900;28;20213;-80
2022/11/14 08:54:28;;;;;;;16.00;9.97;;;8.50;99.90;;;;;;5054956;28;20188;-80
2022/11/14 08:56:53;;;;;;;14.60;8.73;;;8.50;99.90;;;;;;5051702;28;20181;-81
2022/11/14 08:59:19;;;;;;;12.53;8.77;;;8.50;99.90;;;;;;5045173;28;20251;-79
2022/11/14 09:01:45;;;;;;;10.67;7.77;;;8.60;99.90;;;;;;5074324;28;20177;-80
2022/11/14 09:04:11;;;;;;;14.33;9.50;;;8.60;99.90;;;;;;5052549;28;20201;-80
2022/11/14 09:06:36;;;;;;;13.50;8.57;;;8.60;99.90;;;;;;5055144;28;20195;-80
2022/11/14 09:09:02;;;;;;;13.17;8.97;;;8.70;99.90;;;;;;5052831;28;20181;-81
2022/11/14 09:11:28;;;;;;;10.90;7.47;;;8.70;99.90;;;;;;5048675;28;20209;-80
2022/11/14 09:13:54;;;;;;;12.87;8.30;;;8.70;99.90;;;;;;5048251;28;20173;-80
2022/11/14 09:16:19;;;;;;;11.67;8.13;;;8.70;99.90;;;;;;5041436;28;20213;-81
2022/11/14 09:18:45;;;;;;;12.23;8.43;;;8.70;99.90;;;;;;5054619;28;20231;-80
2022/11/14 09:21:11;;;;;;;11.90;7.80;;;8.70;99.90;;;;;;5054983;28;20185;-80
2022/11/14 09:23:37;;;;;;;12.13;7.70;;;8.80;99.90;;;;;;5054231;28;20181;-81
2022/11/14 09:26:05;;;;;;;11.47;7.63;;;8.80;99.90;;;;;;5039116;28;20258;-81
2022/11/14 09:31:08;;;;;;;14.50;8.47;;;8.80;99.90;;;;;;6072083;22;20385;-74
2022/11/14 09:33:34;;;;;;;12.63;7.50;;;8.90;99.90;;;;;;5075035;28;20196;-72
2022/11/14 09:36:02;;;;;;;12.37;8.57;;;8.90;99.90;;;;;;5045356;28;20267;-72
2022/11/14 09:38:29;;;;;;;11.80;7.60;;;8.90;99.90;;;;;;5021236;28;20192;-73
2022/11/14 09:41:30;;;;;;;11.00;7.73;;;9.00;99.90;;;;;;5035717;28;20176;-72
2022/11/14 09:44:15;;;;;;;11.30;7.70;;;9.00;99.90;;;;;;5018269;28;20177;-73
2022/11/14 09:46:52;;;;;;;11.60;7.67;;;9.00;99.90;;;;;;5034800;28;20237;-72
2022/11/14 09:49:36;;;;;;;12.53;8.27;;;9.00;99.90;;;;;;5018164;28;20184;-74
2022/11/14 09:52:18;;;;;;;11.80;7.83;;;9.00;99.90;;;;;;5017683;28;20236;-72
2022/11/14 09:55:08;;;;;;;11.17;7.97;;;9.10;99.90;;;;;;5022767;28;20227;-73
2022/11/14 09:57:33;;;;;;;12.33;8.47;;;9.10;99.90;;;;;;5037613;28;20211;-73
2022/11/14 09:59:59;;;;;;;12.47;8.27;;;9.10;99.90;;;;;;5019203;28;20265;-72
2022/11/14 10:02:54;;;;;;;12.33;8.03;;;9.10;99.90;;;;;;5026000;28;20202;-73
2022/11/14 10:05:40;;;;;;;11.20;7.60;;;9.20;99.90;;;;;;5017974;28;20256;-72
2022/11/14 10:08:11;;;;;;;11.57;7.13;;;9.20;99.90;;;;;;5017695;28;20237;-73
2022/11/14 10:10:50;;;;;;;11.93;8.03;;;9.30;99.90;;;;;;5024232;28;20182;-72
2022/11/14 10:13:40;;;;;;;12.13;8.97;;;9.40;99.90;;;;;;5020899;28;20215;-73
2022/11/14 10:16:21;;;;;;;16.87;9.90;;;9.40;99.90;;;;;;5031722;28;20178;-73
2022/11/14 10:18:56;;;;;;;13.70;9.27;;;9.50;99.90;;;;;;5026926;28;20208;-74
2022/11/14 10:21:27;;;;;;;13.23;8.80;;;9.50;99.90;;;;;;5022047;28;20450;-73
2022/11/14 10:24:21;;;;;;;15.00;9.83;;;9.50;99.90;;;;;;5023049;28;20210;-72
2022/11/14 10:27:05;;;;;;;13.73;9.20;;;9.50;99.90;;;;;;5045169;28;20178;-73
2022/11/14 10:30:05;;;;;;;14.27;9.40;;;9.60;99.90;;;;;;5032802;28;20521;-74
2022/11/14 10:32:45;;;;;;;13.50;8.80;;;9.60;99.90;;;;;;5006082;28;20275;-73
2022/11/14 10:35:49;;;;;;;13.57;9.57;;;9.60;99.90;;;;;;5042101;28;20228;-73
2022/11/14 10:38:36;;;;;;;10.47;8.20;;;9.70;99.90;;;;;;5015065;28;20270;-73
2022/11/14 10:41:05;;;;;;;11.90;8.30;;;9.70;99.90;;;;;;5076892;28;20181;-70
2022/11/14 10:43:44;;;;;;;11.88;8.23;;;9.70;99.90;;;;;;5078244;28;20238;-71
2022/11/14 10:46:19;;;;;;;11.00;7.67;;;9.80;99.90;;;;;;5043878;28;20193;-73
2022/11/14 10:48:48;;;;;;;12.02;8.82;;;9.80;99.90;;;;;;5045880;28;20197;-73
2022/11/14 10:51:19;;;;;;;12.73;8.37;;;9.80;99.90;;;;;;5048192;28;20202;-73
2022/11/14 10:54:05;;;;;;;11.93;8.90;;;9.80;99.90;;;;;;5070231;28;20170;-73
2022/11/14 10:56:34;;;;;;;12.60;8.33;;;9.90;99.90;;;;;;5070872;28;20176;-72
2022/11/14 10:58:59;;;;;;;11.73;8.67;;;9.90;99.90;;;;;;5037521;28;20264;-72
2022/11/14 11:01:42;;;;;;;15.40;9.00;;;9.90;99.90;;;;;;5037460;28;20236;-73
2022/11/14 11:04:36;;;;;;;14.90;9.10;;;10.00;99.90;;;;;;5037116;28;20231;-73
2022/11/14 11:07:08;;;;;;;13.97;9.30;;;10.00;99.90;;;;;;5049436;28;20224;-72
2022/11/14 11:12:23;;;;;;;12.67;9.17;;;10.00;99.90;;;;;;5037872;28;20201;-73
2022/11/14 11:15:09;;;;;;;12.67;9.03;;;10.10;99.90;;;;;;5037228;28;20174;-72
2022/11/14 11:17:37;;;;;;;13.43;8.70;;;10.10;99.90;;;;;;5037270;28;20202;-73
2022/11/14 11:20:25;;;;;;;13.97;9.50;;;10.10;99.90;;;;;;5054179;28;20184;-73
2022/11/14 11:23:10;;;;;;;13.97;9.17;;;10.10;99.90;;;;;;5050683;28;20192;-73
2022/11/14 11:25:37;;;;;;;14.63;9.90;;;10.10;99.90;;;;;;5037399;28;20196;-73
2022/11/14 11:28:12;;;;;;;14.17;9.70;;;10.10;99.90;;;;;;5036848;28;20177;-72
2022/11/14 11:30:38;;;;;;;14.03;9.20;;;10.10;99.90;;;;;;5036850;28;20192;-72
2022/11/14 11:33:19;;;;;;;14.50;9.43;;;10.10;99.90;;;;;;5036906;28;20196;-74
2022/11/14 11:35:49;;;;;;;15.50;9.90;;;10.10;99.90;;;;;;5036592;28;20174;-72
2022/11/14 11:38:18;;;;;;;16.63;10.50;;;10.10;99.90;;;;;;5056473;28;20543;-74
2022/11/14 11:40:47;;;;;;;15.93;10.23;;;10.10;99.90;;;;;;5049145;28;20209;-72
2022/11/14 11:43:17;;;;;;;16.33;10.80;;;10.10;99.90;;;;;;5036576;28;20285;-73
2022/11/14 11:45:48;;;;;;;16.40;11.10;;;10.20;99.90;;;;;;5056760;28;20173;-73
2022/11/14 11:48:21;;;;;;;18.33;11.53;;;10.20;99.90;;;;;;5056522;28;20199;-73
2022/11/14 11:50:48;;;;;;;15.77;10.33;;;10.20;99.90;;;;;;5056755;28;20201;-72
2022/11/14 11:53:27;;;;;;;16.10;10.65;;;10.30;99.90;;;;;;5052420;28;20229;-72
2022/11/14 11:55:58;;;;;;;15.52;10.45;;;10.30;99.90;;;;;;5053376;28;20194;-72
2022/11/14 11:58:40;;;;;;;14.52;9.40;;;10.30;99.90;;;;;;5053156;28;20201;-72
2022/11/14 12:01:14;;;;;;;16.20;10.50;;;10.40;99.90;;;;;;5053299;28;20255;-72
2022/11/14 12:03:47;;;;;;;14.80;10.52;;;10.50;99.90;;;;;;5053058;28;20204;-72
2022/11/14 12:06:26;;;;;;;15.30;10.03;;;10.50;99.90;;;;;;5053138;28;20220;-73
2022/11/14 12:08:57;;;;;;;15.50;9.93;;;10.60;99.90;;;;;;5054022;28;20204;-74
2022/11/14 12:11:28;;;;;;;12.82;9.02;;;10.60;99.90;;;;;;5056927;28;20229;-73
2022/11/14 12:14:21;;;;;;;16.98;10.60;;;10.70;99.90;;;;;;5056141;28;20213;-74
2022/11/14 12:16:50;;;;;;;15.90;10.02;;;10.70;99.90;;;;;;5056356;28;20178;-73
2022/11/14 12:19:43;;;;;;;15.55;10.23;;;10.70;99.90;;;;;;5056385;28;20197;-73
2022/11/14 12:22:34;;;;;;;14.13;9.18;;;10.70;99.90;;;;;;5036863;28;20181;-74
2022/11/14 12:25:25;;;;;;;12.18;8.50;;;10.70;99.90;;;;;;5036067;28;20248;-74
2022/11/14 12:28:25;;;;;;;13.30;8.75;;;10.70;99.90;;;;;;5032957;28;20200;-73
2022/11/14 12:30:58;;;;;;;12.05;8.73;;;10.70;99.90;;;;;;5036360;28;20233;-74
2022/11/14 12:33:29;;;;;;;14.05;9.75;;;10.70;99.90;;;;;;5035607;28;20177;-74
2022/11/14 12:36:01;;;;;;;12.88;9.30;;;10.70;99.90;;;;;;5035723;28;20193;-73
2022/11/14 12:38:41;;;;;;;13.80;9.50;;;10.70;99.90;;;;;;5035879;28;20165;-73
2022/11/14 12:41:08;;;;;;;12.70;8.45;;;10.70;99.90;;;;;;5039247;28;20213;-74
2022/11/14 12:43:37;;;;;;;14.32;10.00;;;10.70;99.90;;;;;;5055537;28;20208;-74
2022/11/14 12:46:12;;;;;;;13.35;9.52;;;10.70;99.90;;;;;;5055707;28;20260;-74
2022/11/14 12:48:41;;;;;;;12.45;8.80;;;10.60;99.90;;;;;;5055606;28;20169;-73
2022/11/14 12:51:26;;;;;;;14.20;8.93;;;10.50;99.90;;;;;;5054848;28;20212;-73
2022/11/14 12:53:55;;;;;;;14.13;8.75;;;10.60;99.90;;;;;;5055318;28;20172;-74
2022/11/14 12:56:30;;;;;;;14.07;9.05;;;10.60;99.90;;;;;;5054921;28;20197;-74
2022/11/14 12:59:17;;;;;;;11.57;8.43;;;10.60;99.90;;;;;;5055254;28;20188;-73
2022/11/14 13:01:51;;;;;;;12.88;8.82;;;10.60;99.90;;;;;;5055025;28;20197;-73
2022/11/14 13:04:40;;;;;;;13.70;9.48;;;10.60;99.90;;;;;;5055221;28;20180;-74
2022/11/14 13:07:42;;;;;;;13.05;8.45;;;10.60;99.90;;;;;;5050766;28;20209;-73
2022/11/14 13:10:35;;;;;;;13.35;9.43;;;10.60;99.90;;;;;;5055179;28;20240;-73